sensor_id;sensor_type;location;lat;lon;timestamp;P1;durP1;ratioP1;P2;durP2;ratioP2
7365;SDS011;3723;52.220;8.792;2022-08-19T00:00:39;11.70;;;4.07;;
7365;SDS011;3723;52.220;8.792;2022-08-19T00:03:06;8.30;;;2.60;;
7365;SDS011;3723;52.220;8.792;2022-08-19T00:05:34;8.27;;;2.43;;
7365;SDS011;3723;52.220;8.792;2022-08-19T00:08:02;9.80;;;2.60;;
7365;SDS011;3723;52.220;8.792;2022-08-19T00:10:30;8.80;;;2.00;;
7365;SDS011;3723;52.220;8.792;2022-08-19T00:12:57;11.43;;;3.20;;
7365;SDS011;3723;52.220;8.792;2022-08-19T00:15:24;11.33;;;4.53;;
7365;SDS011;3723;52.220;8.792;2022-08-19T00:17:51;7.17;;;1.60;;
7365;SDS011;3723;52.220;8.792;2022-08-19T00:20:18;10.10;;;2.70;;
7365;SDS011;3723;52.220;8.792;2022-08-19T00:22:49;9.20;;;1.67;;
7365;SDS011;3723;52.220;8.792;2022-08-19T00:25:16;11.50;;;3.57;;
7365;SDS011;3723;52.220;8.792;2022-08-19T00:27:43;8.90;;;2.90;;
7365;SDS011;3723;52.220;8.792;2022-08-19T00:30:16;9.07;;;2.23;;
7365;SDS011;3723;52.220;8.792;2022-08-19T00:32:43;11.03;;;2.50;;
7365;SDS011;3723;52.220;8.792;2022-08-19T00:35:10;11.47;;;3.67;;
7365;SDS011;3723;52.220;8.792;2022-08-19T00:37:38;13.60;;;4.07;;
7365;SDS011;3723;52.220;8.792;2022-08-19T00:40:11;11.10;;;4.03;;
7365;SDS011;3723;52.220;8.792;2022-08-19T00:42:38;11.23;;;3.20;;
7365;SDS011;3723;52.220;8.792;2022-08-19T00:45:09;19.93;;;4.63;;
7365;SDS011;3723;52.220;8.792;2022-08-19T00:47:37;14.30;;;5.30;;
7365;SDS011;3723;52.220;8.792;2022-08-19T00:50:05;9.23;;;2.20;;
7365;SDS011;3723;52.220;8.792;2022-08-19T00:52:35;13.43;;;2.80;;
7365;SDS011;3723;52.220;8.792;2022-08-19T00:55:06;11.20;;;4.10;;
7365;SDS011;3723;52.220;8.792;2022-08-19T00:57:38;8.53;;;2.60;;
7365;SDS011;3723;52.220;8.792;2022-08-19T01:00:11;8.13;;;1.90;;
7365;SDS011;3723;52.220;8.792;2022-08-19T01:02:40;8.20;;;2.20;;
7365;SDS011;3723;52.220;8.792;2022-08-19T01:05:09;8.40;;;1.80;;
7365;SDS011;3723;52.220;8.792;2022-08-19T01:07:46;8.20;;;1.83;;
7365;SDS011;3723;52.220;8.792;2022-08-19T01:10:20;10.63;;;1.63;;
7365;SDS011;3723;52.220;8.792;2022-08-19T01:12:51;8.20;;;2.17;;
7365;SDS011;3723;52.220;8.792;2022-08-19T01:15:21;11.00;;;3.00;;
7365;SDS011;3723;52.220;8.792;2022-08-19T01:17:53;7.80;;;1.80;;
7365;SDS011;3723;52.220;8.792;2022-08-19T01:20:23;7.50;;;1.50;;
7365;SDS011;3723;52.220;8.792;2022-08-19T01:22:54;13.27;;;2.90;;
7365;SDS011;3723;52.220;8.792;2022-08-19T01:25:24;10.83;;;4.20;;
7365;SDS011;3723;52.220;8.792;2022-08-19T01:27:54;9.60;;;2.93;;
7365;SDS011;3723;52.220;8.792;2022-08-19T01:30:24;14.37;;;4.40;;
7365;SDS011;3723;52.220;8.792;2022-08-19T01:32:54;9.10;;;2.40;;
7365;SDS011;3723;52.220;8.792;2022-08-19T01:35:22;9.40;;;2.23;;
7365;SDS011;3723;52.220;8.792;2022-08-19T01:38:05;9.20;;;2.03;;
7365;SDS011;3723;52.220;8.792;2022-08-19T01:40:35;7.60;;;2.13;;
7365;SDS011;3723;52.220;8.792;2022-08-19T01:43:05;10.80;;;2.00;;
7365;SDS011;3723;52.220;8.792;2022-08-19T01:45:33;10.67;;;3.63;;
7365;SDS011;3723;52.220;8.792;2022-08-19T01:48:02;13.97;;;4.00;;
7365;SDS011;3723;52.220;8.792;2022-08-19T01:50:30;13.23;;;5.53;;
7365;SDS011;3723;52.220;8.792;2022-08-19T01:52:58;14.53;;;5.20;;
7365;SDS011;3723;52.220;8.792;2022-08-19T01:55:28;13.20;;;4.27;;
7365;SDS011;3723;52.220;8.792;2022-08-19T01:57:58;11.60;;;3.57;;
7365;SDS011;3723;52.220;8.792;2022-08-19T02:00:29;15.20;;;5.60;;
7365;SDS011;3723;52.220;8.792;2022-08-19T02:02:58;20.67;;;4.80;;
7365;SDS011;3723;52.220;8.792;2022-08-19T02:05:26;11.63;;;3.00;;
7365;SDS011;3723;52.220;8.792;2022-08-19T02:07:54;8.00;;;2.10;;
7365;SDS011;3723;52.220;8.792;2022-08-19T02:10:21;7.23;;;1.50;;
7365;SDS011;3723;52.220;8.792;2022-08-19T02:12:50;7.37;;;1.70;;
7365;SDS011;3723;52.220;8.792;2022-08-19T02:15:19;15.67;;;4.00;;
7365;SDS011;3723;52.220;8.792;2022-08-19T02:17:47;6.43;;;1.10;;
7365;SDS011;3723;52.220;8.792;2022-08-19T02:20:15;8.40;;;2.10;;
7365;SDS011;3723;52.220;8.792;2022-08-19T02:22:44;7.50;;;1.97;;
7365;SDS011;3723;52.220;8.792;2022-08-19T02:25:12;7.83;;;1.97;;
7365;SDS011;3723;52.220;8.792;2022-08-19T02:27:43;7.07;;;1.57;;
7365;SDS011;3723;52.220;8.792;2022-08-19T02:30:18;7.97;;;2.20;;
7365;SDS011;3723;52.220;8.792;2022-08-19T02:32:45;7.23;;;1.53;;
7365;SDS011;3723;52.220;8.792;2022-08-19T02:35:12;7.20;;;1.70;;
7365;SDS011;3723;52.220;8.792;2022-08-19T02:37:40;7.43;;;1.80;;
7365;SDS011;3723;52.220;8.792;2022-08-19T02:40:25;8.70;;;2.37;;
7365;SDS011;3723;52.220;8.792;2022-08-19T02:42:53;10.03;;;2.53;;
7365;SDS011;3723;52.220;8.792;2022-08-19T02:45:22;11.77;;;2.90;;
7365;SDS011;3723;52.220;8.792;2022-08-19T02:47:50;8.03;;;1.80;;
7365;SDS011;3723;52.220;8.792;2022-08-19T02:50:17;8.00;;;2.03;;
7365;SDS011;3723;52.220;8.792;2022-08-19T02:52:46;7.10;;;1.47;;
7365;SDS011;3723;52.220;8.792;2022-08-19T02:55:19;8.00;;;1.73;;
7365;SDS011;3723;52.220;8.792;2022-08-19T02:57:47;9.30;;;2.23;;
7365;SDS011;3723;52.220;8.792;2022-08-19T03:00:15;10.83;;;3.67;;
7365;SDS011;3723;52.220;8.792;2022-08-19T03:02:43;7.70;;;1.73;;
7365;SDS011;3723;52.220;8.792;2022-08-19T03:05:11;8.20;;;2.43;;
7365;SDS011;3723;52.220;8.792;2022-08-19T03:07:38;10.43;;;2.47;;
7365;SDS011;3723;52.220;8.792;2022-08-19T03:10:06;9.70;;;1.90;;
7365;SDS011;3723;52.220;8.792;2022-08-19T03:12:35;9.20;;;3.00;;
7365;SDS011;3723;52.220;8.792;2022-08-19T03:15:03;11.77;;;3.30;;
7365;SDS011;3723;52.220;8.792;2022-08-19T03:17:31;8.10;;;1.67;;
7365;SDS011;3723;52.220;8.792;2022-08-19T03:19:59;9.53;;;2.47;;
7365;SDS011;3723;52.220;8.792;2022-08-19T03:22:27;8.47;;;2.57;;
7365;SDS011;3723;52.220;8.792;2022-08-19T03:24:55;9.33;;;2.57;;
7365;SDS011;3723;52.220;8.792;2022-08-19T03:27:22;9.93;;;2.50;;
7365;SDS011;3723;52.220;8.792;2022-08-19T03:29:49;8.93;;;2.03;;
7365;SDS011;3723;52.220;8.792;2022-08-19T03:32:17;9.67;;;2.40;;
7365;SDS011;3723;52.220;8.792;2022-08-19T03:34:44;8.70;;;1.70;;
7365;SDS011;3723;52.220;8.792;2022-08-19T03:37:13;9.03;;;2.23;;
7365;SDS011;3723;52.220;8.792;2022-08-19T03:39:40;9.60;;;1.60;;
7365;SDS011;3723;52.220;8.792;2022-08-19T03:42:08;8.60;;;2.10;;
7365;SDS011;3723;52.220;8.792;2022-08-19T03:44:37;9.00;;;2.60;;
7365;SDS011;3723;52.220;8.792;2022-08-19T03:47:04;7.67;;;1.73;;
7365;SDS011;3723;52.220;8.792;2022-08-19T03:49:32;10.60;;;2.50;;
7365;SDS011;3723;52.220;8.792;2022-08-19T03:52:00;7.63;;;1.63;;
7365;SDS011;3723;52.220;8.792;2022-08-19T03:54:31;8.60;;;1.93;;
7365;SDS011;3723;52.220;8.792;2022-08-19T03:56:58;7.70;;;1.60;;
7365;SDS011;3723;52.220;8.792;2022-08-19T03:59:26;17.53;;;3.40;;
7365;SDS011;3723;52.220;8.792;2022-08-19T04:01:55;10.07;;;3.40;;
7365;SDS011;3723;52.220;8.792;2022-08-19T04:04:29;16.00;;;3.70;;
7365;SDS011;3723;52.220;8.792;2022-08-19T04:06:56;9.37;;;2.23;;
7365;SDS011;3723;52.220;8.792;2022-08-19T04:09:23;8.50;;;2.63;;
7365;SDS011;3723;52.220;8.792;2022-08-19T04:11:53;15.20;;;6.63;;
7365;SDS011;3723;52.220;8.792;2022-08-19T04:14:21;11.03;;;3.30;;
7365;SDS011;3723;52.220;8.792;2022-08-19T04:16:49;13.70;;;4.17;;
7365;SDS011;3723;52.220;8.792;2022-08-19T04:19:17;9.60;;;3.30;;
7365;SDS011;3723;52.220;8.792;2022-08-19T04:21:46;13.93;;;5.47;;
7365;SDS011;3723;52.220;8.792;2022-08-19T04:24:14;11.00;;;3.20;;
7365;SDS011;3723;52.220;8.792;2022-08-19T04:26:41;11.57;;;2.17;;
7365;SDS011;3723;52.220;8.792;2022-08-19T04:29:12;9.90;;;2.20;;
7365;SDS011;3723;52.220;8.792;2022-08-19T04:31:41;7.47;;;1.97;;
7365;SDS011;3723;52.220;8.792;2022-08-19T04:34:11;14.90;;;5.13;;
7365;SDS011;3723;52.220;8.792;2022-08-19T04:36:39;10.80;;;3.00;;
7365;SDS011;3723;52.220;8.792;2022-08-19T04:39:08;11.40;;;3.47;;
7365;SDS011;3723;52.220;8.792;2022-08-19T04:41:35;12.80;;;4.30;;
7365;SDS011;3723;52.220;8.792;2022-08-19T04:44:22;17.37;;;6.43;;
7365;SDS011;3723;52.220;8.792;2022-08-19T04:46:49;25.60;;;5.83;;
7365;SDS011;3723;52.220;8.792;2022-08-19T04:49:17;9.43;;;2.77;;
7365;SDS011;3723;52.220;8.792;2022-08-19T04:51:47;8.07;;;2.40;;
7365;SDS011;3723;52.220;8.792;2022-08-19T04:54:14;9.27;;;3.40;;
7365;SDS011;3723;52.220;8.792;2022-08-19T04:56:42;12.37;;;4.57;;
7365;SDS011;3723;52.220;8.792;2022-08-19T04:59:10;12.37;;;4.13;;
7365;SDS011;3723;52.220;8.792;2022-08-19T05:01:42;15.07;;;3.87;;
7365;SDS011;3723;52.220;8.792;2022-08-19T05:04:11;8.90;;;2.20;;
7365;SDS011;3723;52.220;8.792;2022-08-19T05:06:39;13.60;;;5.10;;
7365;SDS011;3723;52.220;8.792;2022-08-19T05:09:07;13.40;;;4.77;;
7365;SDS011;3723;52.220;8.792;2022-08-19T05:11:35;13.53;;;4.83;;
7365;SDS011;3723;52.220;8.792;2022-08-19T05:14:05;15.57;;;6.40;;
7365;SDS011;3723;52.220;8.792;2022-08-19T05:16:33;15.77;;;5.67;;
7365;SDS011;3723;52.220;8.792;2022-08-19T05:19:02;14.53;;;5.27;;
7365;SDS011;3723;52.220;8.792;2022-08-19T05:21:47;8.67;;;2.93;;
7365;SDS011;3723;52.220;8.792;2022-08-19T05:24:31;11.30;;;2.70;;
7365;SDS011;3723;52.220;8.792;2022-08-19T05:27:00;18.97;;;5.77;;
7365;SDS011;3723;52.220;8.792;2022-08-19T05:29:28;11.30;;;3.80;;
7365;SDS011;3723;52.220;8.792;2022-08-19T05:31:56;17.53;;;5.47;;
7365;SDS011;3723;52.220;8.792;2022-08-19T05:34:29;20.50;;;6.20;;
7365;SDS011;3723;52.220;8.792;2022-08-19T05:36:58;12.80;;;2.70;;
7365;SDS011;3723;52.220;8.792;2022-08-19T05:39:27;9.40;;;2.50;;
7365;SDS011;3723;52.220;8.792;2022-08-19T05:41:56;9.53;;;2.33;;
7365;SDS011;3723;52.220;8.792;2022-08-19T05:44:38;11.23;;;3.17;;
7365;SDS011;3723;52.220;8.792;2022-08-19T05:47:08;12.87;;;4.60;;
7365;SDS011;3723;52.220;8.792;2022-08-19T05:49:38;10.00;;;3.70;;
7365;SDS011;3723;52.220;8.792;2022-08-19T05:52:07;13.37;;;4.70;;
7365;SDS011;3723;52.220;8.792;2022-08-19T05:54:36;12.80;;;4.47;;
7365;SDS011;3723;52.220;8.792;2022-08-19T05:57:05;15.70;;;3.30;;
7365;SDS011;3723;52.220;8.792;2022-08-19T05:59:33;11.13;;;2.70;;
7365;SDS011;3723;52.220;8.792;2022-08-19T06:02:00;9.00;;;2.13;;
7365;SDS011;3723;52.220;8.792;2022-08-19T06:04:28;10.70;;;3.20;;
7365;SDS011;3723;52.220;8.792;2022-08-19T06:06:59;7.13;;;1.60;;
7365;SDS011;3723;52.220;8.792;2022-08-19T06:09:28;11.70;;;4.03;;
7365;SDS011;3723;52.220;8.792;2022-08-19T06:11:57;8.90;;;2.63;;
7365;SDS011;3723;52.220;8.792;2022-08-19T06:14:26;10.97;;;3.43;;
7365;SDS011;3723;52.220;8.792;2022-08-19T06:16:54;15.23;;;3.57;;
7365;SDS011;3723;52.220;8.792;2022-08-19T06:19:26;12.70;;;4.20;;
7365;SDS011;3723;52.220;8.792;2022-08-19T06:21:55;11.90;;;2.53;;
7365;SDS011;3723;52.220;8.792;2022-08-19T06:24:28;10.87;;;2.47;;
7365;SDS011;3723;52.220;8.792;2022-08-19T06:26:57;7.93;;;2.10;;
7365;SDS011;3723;52.220;8.792;2022-08-19T06:29:27;9.70;;;3.63;;
7365;SDS011;3723;52.220;8.792;2022-08-19T06:31:58;11.90;;;3.10;;
7365;SDS011;3723;52.220;8.792;2022-08-19T06:34:27;9.67;;;2.60;;
7365;SDS011;3723;52.220;8.792;2022-08-19T06:37:09;9.80;;;2.03;;
7365;SDS011;3723;52.220;8.792;2022-08-19T06:39:44;9.40;;;1.80;;
7365;SDS011;3723;52.220;8.792;2022-08-19T06:45:12;11.20;;;2.00;;
7365;SDS011;3723;52.220;8.792;2022-08-19T06:47:40;13.90;;;2.77;;
7365;SDS011;3723;52.220;8.792;2022-08-19T06:50:11;7.43;;;1.30;;
7365;SDS011;3723;52.220;8.792;2022-08-19T06:52:38;11.83;;;2.30;;
7365;SDS011;3723;52.220;8.792;2022-08-19T06:55:07;7.70;;;1.60;;
7365;SDS011;3723;52.220;8.792;2022-08-19T06:57:44;10.43;;;2.20;;
7365;SDS011;3723;52.220;8.792;2022-08-19T07:00:13;8.60;;;1.77;;
7365;SDS011;3723;52.220;8.792;2022-08-19T07:02:40;7.17;;;1.40;;
7365;SDS011;3723;52.220;8.792;2022-08-19T07:05:10;7.27;;;1.30;;
7365;SDS011;3723;52.220;8.792;2022-08-19T07:07:37;9.13;;;1.13;;
7365;SDS011;3723;52.220;8.792;2022-08-19T07:10:21;7.17;;;1.00;;
7365;SDS011;3723;52.220;8.792;2022-08-19T07:12:48;10.57;;;1.87;;
7365;SDS011;3723;52.220;8.792;2022-08-19T07:15:17;6.23;;;0.90;;
7365;SDS011;3723;52.220;8.792;2022-08-19T07:17:46;10.93;;;2.43;;
7365;SDS011;3723;52.220;8.792;2022-08-19T07:20:13;6.77;;;1.33;;
7365;SDS011;3723;52.220;8.792;2022-08-19T07:22:42;7.10;;;1.40;;
7365;SDS011;3723;52.220;8.792;2022-08-19T07:25:10;6.50;;;0.90;;
7365;SDS011;3723;52.220;8.792;2022-08-19T07:27:39;8.60;;;2.03;;
7365;SDS011;3723;52.220;8.792;2022-08-19T07:30:07;7.10;;;1.20;;
7365;SDS011;3723;52.220;8.792;2022-08-19T07:32:36;6.97;;;1.43;;
7365;SDS011;3723;52.220;8.792;2022-08-19T07:35:04;6.00;;;0.80;;
7365;SDS011;3723;52.220;8.792;2022-08-19T07:37:32;7.73;;;1.63;;
7365;SDS011;3723;52.220;8.792;2022-08-19T07:40:09;7.07;;;0.90;;
7365;SDS011;3723;52.220;8.792;2022-08-19T07:42:36;7.40;;;1.33;;
7365;SDS011;3723;52.220;8.792;2022-08-19T07:45:08;7.00;;;1.20;;
7365;SDS011;3723;52.220;8.792;2022-08-19T07:47:41;8.00;;;1.50;;
7365;SDS011;3723;52.220;8.792;2022-08-19T07:50:09;7.60;;;1.50;;
7365;SDS011;3723;52.220;8.792;2022-08-19T07:52:37;6.63;;;1.10;;
7365;SDS011;3723;52.220;8.792;2022-08-19T07:55:18;8.93;;;1.40;;
7365;SDS011;3723;52.220;8.792;2022-08-19T07:57:48;9.33;;;1.30;;
7365;SDS011;3723;52.220;8.792;2022-08-19T08:00:19;8.07;;;1.10;;
7365;SDS011;3723;52.220;8.792;2022-08-19T08:02:46;6.90;;;0.80;;
7365;SDS011;3723;52.220;8.792;2022-08-19T08:05:13;6.30;;;0.83;;
7365;SDS011;3723;52.220;8.792;2022-08-19T08:07:59;6.60;;;0.97;;
7365;SDS011;3723;52.220;8.792;2022-08-19T08:10:43;8.40;;;1.03;;
7365;SDS011;3723;52.220;8.792;2022-08-19T08:13:10;8.47;;;2.10;;
7365;SDS011;3723;52.220;8.792;2022-08-19T08:15:41;6.47;;;1.00;;
7365;SDS011;3723;52.220;8.792;2022-08-19T08:18:09;7.17;;;1.10;;
7365;SDS011;3723;52.220;8.792;2022-08-19T08:20:48;6.77;;;1.10;;
7365;SDS011;3723;52.220;8.792;2022-08-19T08:23:15;6.87;;;1.10;;
7365;SDS011;3723;52.220;8.792;2022-08-19T08:25:51;12.47;;;1.40;;
7365;SDS011;3723;52.220;8.792;2022-08-19T08:28:20;7.40;;;0.93;;
7365;SDS011;3723;52.220;8.792;2022-08-19T08:30:57;7.40;;;0.97;;
7365;SDS011;3723;52.220;8.792;2022-08-19T08:33:26;9.10;;;2.60;;
7365;SDS011;3723;52.220;8.792;2022-08-19T08:35:56;6.40;;;0.87;;
7365;SDS011;3723;52.220;8.792;2022-08-19T08:38:24;7.00;;;1.20;;
7365;SDS011;3723;52.220;8.792;2022-08-19T08:40:52;7.70;;;1.10;;
7365;SDS011;3723;52.220;8.792;2022-08-19T08:43:39;9.40;;;1.07;;
7365;SDS011;3723;52.220;8.792;2022-08-19T08:46:15;6.83;;;0.90;;
7365;SDS011;3723;52.220;8.792;2022-08-19T08:48:50;6.97;;;1.17;;
7365;SDS011;3723;52.220;8.792;2022-08-19T08:51:26;6.63;;;0.93;;
7365;SDS011;3723;52.220;8.792;2022-08-19T08:53:58;6.60;;;1.23;;
7365;SDS011;3723;52.220;8.792;2022-08-19T08:56:31;9.83;;;1.10;;
7365;SDS011;3723;52.220;8.792;2022-08-19T08:59:00;7.50;;;1.00;;
7365;SDS011;3723;52.220;8.792;2022-08-19T09:01:34;7.43;;;1.10;;
7365;SDS011;3723;52.220;8.792;2022-08-19T09:04:02;7.50;;;1.10;;
7365;SDS011;3723;52.220;8.792;2022-08-19T09:06:35;7.27;;;1.23;;
7365;SDS011;3723;52.220;8.792;2022-08-19T09:09:12;7.80;;;1.33;;
7365;SDS011;3723;52.220;8.792;2022-08-19T09:14:35;7.00;;;0.90;;
7365;SDS011;3723;52.220;8.792;2022-08-19T09:17:09;7.83;;;0.97;;
7365;SDS011;3723;52.220;8.792;2022-08-19T09:19:46;7.60;;;1.07;;
7365;SDS011;3723;52.220;8.792;2022-08-19T09:22:16;8.30;;;1.50;;
7365;SDS011;3723;52.220;8.792;2022-08-19T09:24:46;5.97;;;0.77;;
7365;SDS011;3723;52.220;8.792;2022-08-19T09:27:14;7.03;;;1.20;;
7365;SDS011;3723;52.220;8.792;2022-08-19T09:29:41;6.73;;;0.97;;
7365;SDS011;3723;52.220;8.792;2022-08-19T09:32:10;6.73;;;0.90;;
7365;SDS011;3723;52.220;8.792;2022-08-19T09:34:37;6.60;;;1.20;;
7365;SDS011;3723;52.220;8.792;2022-08-19T09:37:08;6.97;;;1.17;;
7365;SDS011;3723;52.220;8.792;2022-08-19T09:39:38;6.73;;;0.90;;
7365;SDS011;3723;52.220;8.792;2022-08-19T09:42:07;8.60;;;0.80;;
7365;SDS011;3723;52.220;8.792;2022-08-19T09:44:38;6.70;;;0.80;;
7365;SDS011;3723;52.220;8.792;2022-08-19T09:47:06;7.43;;;1.10;;
7365;SDS011;3723;52.220;8.792;2022-08-19T09:49:42;7.83;;;1.13;;
7365;SDS011;3723;52.220;8.792;2022-08-19T09:52:10;6.50;;;1.20;;
7365;SDS011;3723;52.220;8.792;2022-08-19T09:54:37;7.30;;;0.77;;
7365;SDS011;3723;52.220;8.792;2022-08-19T09:57:05;7.80;;;1.20;;
7365;SDS011;3723;52.220;8.792;2022-08-19T09:59:34;6.67;;;1.00;;
7365;SDS011;3723;52.220;8.792;2022-08-19T10:02:02;6.30;;;0.80;;
7365;SDS011;3723;52.220;8.792;2022-08-19T10:04:29;6.50;;;0.83;;
7365;SDS011;3723;52.220;8.792;2022-08-19T10:07:11;6.47;;;0.90;;
7365;SDS011;3723;52.220;8.792;2022-08-19T10:09:38;6.23;;;0.80;;
7365;SDS011;3723;52.220;8.792;2022-08-19T10:12:06;6.27;;;0.70;;
7365;SDS011;3723;52.220;8.792;2022-08-19T10:14:34;6.50;;;0.90;;
7365;SDS011;3723;52.220;8.792;2022-08-19T10:17:01;6.47;;;0.87;;
7365;SDS011;3723;52.220;8.792;2022-08-19T10:19:30;10.53;;;0.70;;
7365;SDS011;3723;52.220;8.792;2022-08-19T10:22:02;6.20;;;0.80;;
7365;SDS011;3723;52.220;8.792;2022-08-19T10:24:32;6.40;;;1.07;;
7365;SDS011;3723;52.220;8.792;2022-08-19T10:27:10;7.40;;;1.00;;
7365;SDS011;3723;52.220;8.792;2022-08-19T10:29:39;6.30;;;0.80;;
7365;SDS011;3723;52.220;8.792;2022-08-19T10:32:07;7.23;;;0.80;;
7365;SDS011;3723;52.220;8.792;2022-08-19T10:34:36;7.50;;;0.80;;
7365;SDS011;3723;52.220;8.792;2022-08-19T10:37:04;6.73;;;1.00;;
7365;SDS011;3723;52.220;8.792;2022-08-19T10:39:35;6.90;;;0.80;;
7365;SDS011;3723;52.220;8.792;2022-08-19T10:42:04;12.23;;;1.57;;
7365;SDS011;3723;52.220;8.792;2022-08-19T10:44:35;6.77;;;0.90;;
7365;SDS011;3723;52.220;8.792;2022-08-19T10:47:03;6.10;;;0.80;;
7365;SDS011;3723;52.220;8.792;2022-08-19T10:49:30;7.23;;;1.20;;
7365;SDS011;3723;52.220;8.792;2022-08-19T10:52:18;6.60;;;0.80;;
7365;SDS011;3723;52.220;8.792;2022-08-19T10:55:00;7.73;;;1.47;;
7365;SDS011;3723;52.220;8.792;2022-08-19T10:57:45;7.37;;;1.00;;
7365;SDS011;3723;52.220;8.792;2022-08-19T11:00:12;6.10;;;0.70;;
7365;SDS011;3723;52.220;8.792;2022-08-19T11:02:40;6.63;;;0.70;;
7365;SDS011;3723;52.220;8.792;2022-08-19T11:05:09;5.90;;;0.70;;
7365;SDS011;3723;52.220;8.792;2022-08-19T11:07:37;5.90;;;0.63;;
7365;SDS011;3723;52.220;8.792;2022-08-19T11:10:08;6.50;;;0.87;;
7365;SDS011;3723;52.220;8.792;2022-08-19T11:12:36;6.30;;;0.80;;
7365;SDS011;3723;52.220;8.792;2022-08-19T11:15:06;6.20;;;0.80;;
7365;SDS011;3723;52.220;8.792;2022-08-19T11:17:36;7.00;;;1.30;;
7365;SDS011;3723;52.220;8.792;2022-08-19T11:20:06;6.70;;;0.90;;
7365;SDS011;3723;52.220;8.792;2022-08-19T11:22:36;6.57;;;0.97;;
7365;SDS011;3723;52.220;8.792;2022-08-19T11:25:03;6.27;;;0.70;;
7365;SDS011;3723;52.220;8.792;2022-08-19T11:27:32;6.60;;;0.97;;
7365;SDS011;3723;52.220;8.792;2022-08-19T11:29:59;6.77;;;1.00;;
7365;SDS011;3723;52.220;8.792;2022-08-19T11:32:29;6.00;;;0.70;;
7365;SDS011;3723;52.220;8.792;2022-08-19T11:34:56;7.87;;;0.90;;
7365;SDS011;3723;52.220;8.792;2022-08-19T11:37:29;7.93;;;1.97;;
7365;SDS011;3723;52.220;8.792;2022-08-19T11:40:05;6.67;;;1.43;;
7365;SDS011;3723;52.220;8.792;2022-08-19T11:42:33;6.00;;;0.80;;
7365;SDS011;3723;52.220;8.792;2022-08-19T11:45:20;7.83;;;1.00;;
7365;SDS011;3723;52.220;8.792;2022-08-19T11:47:47;7.10;;;1.10;;
7365;SDS011;3723;52.220;8.792;2022-08-19T11:50:14;7.20;;;1.00;;
7365;SDS011;3723;52.220;8.792;2022-08-19T11:52:42;7.83;;;0.97;;
7365;SDS011;3723;52.220;8.792;2022-08-19T11:55:10;8.53;;;0.80;;
7365;SDS011;3723;52.220;8.792;2022-08-19T11:57:38;6.30;;;0.80;;
7365;SDS011;3723;52.220;8.792;2022-08-19T12:00:06;6.73;;;0.80;;
7365;SDS011;3723;52.220;8.792;2022-08-19T12:02:35;6.97;;;1.23;;
7365;SDS011;3723;52.220;8.792;2022-08-19T12:05:03;6.50;;;0.80;;
7365;SDS011;3723;52.220;8.792;2022-08-19T12:07:31;6.37;;;0.90;;
7365;SDS011;3723;52.220;8.792;2022-08-19T12:09:58;6.87;;;0.90;;
7365;SDS011;3723;52.220;8.792;2022-08-19T12:12:26;9.73;;;1.00;;
7365;SDS011;3723;52.220;8.792;2022-08-19T12:14:54;7.07;;;0.90;;
7365;SDS011;3723;52.220;8.792;2022-08-19T12:17:23;7.50;;;0.80;;
7365;SDS011;3723;52.220;8.792;2022-08-19T12:19:51;6.33;;;0.80;;
7365;SDS011;3723;52.220;8.792;2022-08-19T12:22:20;6.10;;;0.90;;
7365;SDS011;3723;52.220;8.792;2022-08-19T12:24:48;6.30;;;0.80;;
7365;SDS011;3723;52.220;8.792;2022-08-19T12:27:17;6.60;;;0.90;;
7365;SDS011;3723;52.220;8.792;2022-08-19T12:29:44;6.30;;;0.70;;
7365;SDS011;3723;52.220;8.792;2022-08-19T12:32:12;5.87;;;0.70;;
7365;SDS011;3723;52.220;8.792;2022-08-19T12:34:42;6.40;;;0.70;;
7365;SDS011;3723;52.220;8.792;2022-08-19T12:37:09;6.47;;;0.80;;
7365;SDS011;3723;52.220;8.792;2022-08-19T12:39:37;5.97;;;0.80;;
7365;SDS011;3723;52.220;8.792;2022-08-19T12:42:06;6.40;;;0.80;;
7365;SDS011;3723;52.220;8.792;2022-08-19T12:44:33;5.97;;;0.70;;
7365;SDS011;3723;52.220;8.792;2022-08-19T12:47:13;6.00;;;0.80;;
7365;SDS011;3723;52.220;8.792;2022-08-19T12:49:42;6.40;;;0.80;;
7365;SDS011;3723;52.220;8.792;2022-08-19T12:52:09;6.20;;;0.70;;
7365;SDS011;3723;52.220;8.792;2022-08-19T12:54:40;6.20;;;0.90;;
7365;SDS011;3723;52.220;8.792;2022-08-19T12:57:09;6.37;;;0.90;;
7365;SDS011;3723;52.220;8.792;2022-08-19T12:59:51;6.00;;;0.80;;
7365;SDS011;3723;52.220;8.792;2022-08-19T13:02:20;7.33;;;0.90;;
7365;SDS011;3723;52.220;8.792;2022-08-19T13:04:48;8.70;;;0.83;;
7365;SDS011;3723;52.220;8.792;2022-08-19T13:07:14;6.30;;;0.90;;
7365;SDS011;3723;52.220;8.792;2022-08-19T13:09:41;7.93;;;0.83;;
7365;SDS011;3723;52.220;8.792;2022-08-19T13:12:08;6.30;;;0.80;;
7365;SDS011;3723;52.220;8.792;2022-08-19T13:14:39;6.50;;;0.87;;
7365;SDS011;3723;52.220;8.792;2022-08-19T13:17:11;6.30;;;0.80;;
7365;SDS011;3723;52.220;8.792;2022-08-19T13:19:41;15.40;;;1.10;;
7365;SDS011;3723;52.220;8.792;2022-08-19T13:22:08;6.00;;;0.80;;
7365;SDS011;3723;52.220;8.792;2022-08-19T13:24:34;8.00;;;0.90;;
7365;SDS011;3723;52.220;8.792;2022-08-19T13:27:02;6.20;;;0.87;;
7365;SDS011;3723;52.220;8.792;2022-08-19T13:29:29;6.87;;;1.30;;
7365;SDS011;3723;52.220;8.792;2022-08-19T13:32:14;7.17;;;1.57;;
7365;SDS011;3723;52.220;8.792;2022-08-19T13:35:00;6.20;;;0.80;;
7365;SDS011;3723;52.220;8.792;2022-08-19T13:37:27;6.10;;;0.70;;
7365;SDS011;3723;52.220;8.792;2022-08-19T13:40:07;6.00;;;0.70;;
7365;SDS011;3723;52.220;8.792;2022-08-19T13:42:40;6.60;;;1.03;;
7365;SDS011;3723;52.220;8.792;2022-08-19T13:45:08;9.93;;;1.00;;
7365;SDS011;3723;52.220;8.792;2022-08-19T13:47:37;6.53;;;0.80;;
7365;SDS011;3723;52.220;8.792;2022-08-19T13:50:11;6.80;;;1.00;;
7365;SDS011;3723;52.220;8.792;2022-08-19T13:52:39;6.37;;;0.80;;
7365;SDS011;3723;52.220;8.792;2022-08-19T13:55:07;6.80;;;0.90;;
7365;SDS011;3723;52.220;8.792;2022-08-19T13:57:38;6.13;;;0.70;;
7365;SDS011;3723;52.220;8.792;2022-08-19T14:00:07;6.10;;;0.90;;
7365;SDS011;3723;52.220;8.792;2022-08-19T14:02:35;6.50;;;1.00;;
7365;SDS011;3723;52.220;8.792;2022-08-19T14:05:04;6.20;;;0.80;;
7365;SDS011;3723;52.220;8.792;2022-08-19T14:07:33;7.23;;;1.00;;
7365;SDS011;3723;52.220;8.792;2022-08-19T14:10:01;6.93;;;1.00;;
7365;SDS011;3723;52.220;8.792;2022-08-19T14:12:28;6.70;;;0.80;;
7365;SDS011;3723;52.220;8.792;2022-08-19T14:15:07;6.50;;;0.90;;
7365;SDS011;3723;52.220;8.792;2022-08-19T14:17:37;6.30;;;0.70;;
7365;SDS011;3723;52.220;8.792;2022-08-19T14:20:10;6.23;;;0.90;;
7365;SDS011;3723;52.220;8.792;2022-08-19T14:22:40;6.53;;;0.90;;
7365;SDS011;3723;52.220;8.792;2022-08-19T14:25:08;7.23;;;0.90;;
7365;SDS011;3723;52.220;8.792;2022-08-19T14:27:38;6.80;;;1.00;;
7365;SDS011;3723;52.220;8.792;2022-08-19T14:30:06;7.20;;;0.87;;
7365;SDS011;3723;52.220;8.792;2022-08-19T14:32:34;6.87;;;1.10;;
7365;SDS011;3723;52.220;8.792;2022-08-19T14:35:02;6.60;;;0.90;;
7365;SDS011;3723;52.220;8.792;2022-08-19T14:37:41;7.80;;;1.00;;
7365;SDS011;3723;52.220;8.792;2022-08-19T14:40:12;7.77;;;0.80;;
7365;SDS011;3723;52.220;8.792;2022-08-19T14:42:41;6.63;;;1.20;;
7365;SDS011;3723;52.220;8.792;2022-08-19T14:45:08;8.13;;;1.30;;
7365;SDS011;3723;52.220;8.792;2022-08-19T14:47:36;8.73;;;0.93;;
7365;SDS011;3723;52.220;8.792;2022-08-19T14:50:04;6.50;;;1.00;;
7365;SDS011;3723;52.220;8.792;2022-08-19T14:52:31;9.27;;;1.40;;
7365;SDS011;3723;52.220;8.792;2022-08-19T14:55:00;6.40;;;0.80;;
7365;SDS011;3723;52.220;8.792;2022-08-19T14:57:28;7.43;;;1.00;;
7365;SDS011;3723;52.220;8.792;2022-08-19T14:59:55;8.80;;;1.20;;
7365;SDS011;3723;52.220;8.792;2022-08-19T15:02:23;7.10;;;0.83;;
7365;SDS011;3723;52.220;8.792;2022-08-19T15:04:49;6.57;;;0.83;;
7365;SDS011;3723;52.220;8.792;2022-08-19T15:07:17;6.47;;;0.80;;
7365;SDS011;3723;52.220;8.792;2022-08-19T15:09:44;6.53;;;1.00;;
7365;SDS011;3723;52.220;8.792;2022-08-19T15:12:12;6.33;;;0.90;;
7365;SDS011;3723;52.220;8.792;2022-08-19T15:14:39;6.27;;;0.97;;
7365;SDS011;3723;52.220;8.792;2022-08-19T15:17:07;7.07;;;1.03;;
7365;SDS011;3723;52.220;8.792;2022-08-19T15:19:38;6.60;;;0.90;;
7365;SDS011;3723;52.220;8.792;2022-08-19T15:22:05;6.40;;;1.00;;
7365;SDS011;3723;52.220;8.792;2022-08-19T15:24:32;6.30;;;0.90;;
7365;SDS011;3723;52.220;8.792;2022-08-19T15:27:00;6.20;;;0.80;;
7365;SDS011;3723;52.220;8.792;2022-08-19T15:29:28;6.93;;;0.90;;
7365;SDS011;3723;52.220;8.792;2022-08-19T15:31:55;12.93;;;1.10;;
7365;SDS011;3723;52.220;8.792;2022-08-19T15:37:44;7.90;;;1.43;;